createdAt,value
2019-02-19T00:01:09.146Z,2.33
2019-02-19T00:03:35.458Z,3.40
2019-02-19T00:06:03.505Z,4.00
2019-02-19T00:08:30.464Z,3.27
2019-02-19T00:10:57.093Z,5.37
2019-02-19T00:13:23.352Z,4.97
2019-02-19T00:15:49.622Z,3.60
2019-02-19T00:18:16.523Z,3.00
2019-02-19T00:20:42.802Z,3.60
2019-02-19T00:23:11.364Z,5.90
2019-02-19T00:25:37.830Z,4.30
2019-02-19T00:28:04.726Z,3.70
2019-02-19T00:30:31.439Z,4.23
2019-02-19T00:32:57.706Z,6.97
2019-02-19T00:35:24.220Z,3.97
2019-02-19T00:37:50.517Z,5.77
2019-02-19T00:40:17.016Z,5.50
2019-02-19T00:42:43.301Z,4.77
2019-02-19T00:45:16.497Z,4.90
2019-02-19T00:47:38.365Z,4.27
2019-02-19T00:50:05.185Z,4.53
2019-02-19T00:52:31.997Z,3.17
2019-02-19T00:54:58.605Z,7.00
2019-02-19T00:57:26.762Z,4.13
2019-02-19T00:59:53.038Z,4.87
2019-02-19T01:02:19.673Z,4.57
2019-02-19T01:04:47.338Z,3.80
2019-02-19T01:07:14.737Z,5.43
2019-02-19T01:09:43.245Z,4.70
2019-02-19T01:12:11.319Z,4.47
2019-02-19T01:14:38.260Z,4.50
2019-02-19T01:17:05.353Z,4.83
2019-02-19T01:19:32.019Z,4.67
2019-02-19T01:21:59.821Z,5.33
2019-02-19T01:24:28.031Z,5.40
2019-02-19T01:26:54.644Z,3.90
2019-02-19T01:29:21.261Z,4.57
2019-02-19T01:31:47.534Z,4.90
2019-02-19T01:34:13.797Z,4.00
2019-02-19T01:36:41.991Z,3.90
2019-02-19T01:39:08.778Z,4.50
2019-02-19T01:41:35.677Z,4.77
2019-02-19T01:44:02.402Z,4.17
2019-02-19T01:46:29.821Z,4.53
2019-02-19T01:48:56.437Z,4.77
2019-02-19T01:51:24.266Z,4.90
2019-02-19T01:53:50.889Z,3.90
2019-02-19T01:56:17.776Z,4.27
2019-02-19T01:58:44.628Z,5.87
2019-02-19T02:01:12.221Z,4.40
2019-02-19T02:03:38.766Z,6.77
2019-02-19T02:06:05.689Z,4.57
2019-02-19T02:08:34.234Z,3.43
2019-02-19T02:11:00.513Z,5.53
2019-02-19T02:13:26.814Z,4.77
2019-02-19T02:15:53.426Z,5.97
2019-02-19T02:18:20.051Z,3.83
2019-02-19T02:20:50.790Z,4.03
2019-02-19T02:23:17.307Z,4.50
2019-02-19T02:25:43.949Z,4.40
2019-02-19T02:28:10.585Z,3.10
2019-02-19T02:30:36.882Z,3.60
2019-02-19T02:33:03.121Z,3.93
2019-02-19T02:35:32.510Z,3.20
2019-02-19T02:37:59.330Z,4.57
2019-02-19T02:40:25.994Z,4.37
2019-02-19T02:42:52.253Z,2.87
2019-02-19T02:45:19.166Z,4.57
2019-02-19T02:47:45.915Z,2.97
2019-02-19T02:50:12.144Z,2.97
2019-02-19T02:52:38.418Z,3.07
2019-02-19T02:55:06.681Z,4.10
2019-02-19T02:57:35.108Z,3.37
2019-02-19T03:00:02.021Z,3.10
2019-02-19T03:02:31.233Z,2.70
2019-02-19T03:04:57.548Z,2.47
2019-02-19T03:07:28.789Z,2.23
2019-02-19T03:09:59.897Z,3.13
2019-02-19T03:12:26.266Z,2.43
2019-02-19T03:14:52.883Z,2.90
2019-02-19T03:17:21.040Z,2.43
2019-02-19T03:19:50.427Z,3.60
2019-02-19T03:22:16.686Z,2.90
2019-02-19T03:24:42.968Z,3.57
2019-02-19T03:27:09.234Z,2.80
2019-02-19T03:29:35.887Z,1.83
2019-02-19T03:32:02.503Z,2.10
2019-02-19T03:34:28.810Z,2.20
2019-02-19T03:36:55.314Z,2.87
2019-02-19T03:39:21.614Z,2.60
2019-02-19T03:41:50.806Z,2.70
2019-02-19T03:44:17.425Z,2.53
2019-02-19T03:46:44.035Z,2.53
2019-02-19T03:49:10.657Z,2.00
2019-02-19T03:51:36.932Z,2.00
2019-02-19T03:54:05.098Z,1.93
2019-02-19T03:56:33.310Z,3.40
2019-02-19T03:58:59.937Z,1.70
2019-02-19T04:01:26.949Z,2.90
2019-02-19T04:03:53.675Z,1.83
2019-02-19T04:06:20.222Z,2.60
2019-02-19T04:08:46.488Z,1.90
2019-02-19T04:11:13.486Z,2.20
2019-02-19T04:13:40.373Z,2.43
2019-02-19T04:16:08.365Z,2.20
2019-02-19T04:18:37.293Z,1.97
2019-02-19T04:21:07.121Z,2.53
2019-02-19T04:23:34.715Z,2.20
2019-02-19T04:26:01.210Z,2.53
2019-02-19T04:28:28.101Z,2.60
2019-02-19T04:30:54.718Z,2.57
2019-02-19T04:33:21.327Z,1.97
2019-02-19T04:35:47.578Z,2.30
2019-02-19T04:38:14.218Z,2.63
2019-02-19T04:40:40.486Z,2.20
2019-02-19T04:43:06.874Z,3.10
2019-02-19T04:45:33.526Z,2.00
2019-02-19T04:48:00.170Z,1.93
2019-02-19T04:50:26.779Z,1.80
2019-02-19T04:52:53.633Z,2.67
2019-02-19T04:55:20.460Z,2.50
2019-02-19T04:57:46.724Z,3.77
2019-02-19T05:00:13.544Z,2.30
2019-02-19T05:02:40.187Z,2.00
2019-02-19T05:05:06.506Z,3.47
2019-02-19T05:07:34.379Z,2.30
2019-02-19T05:10:00.982Z,3.63
2019-02-19T05:12:27.630Z,2.90
2019-02-19T05:14:53.903Z,2.27
2019-02-19T05:17:20.575Z,2.60
2019-02-19T05:19:47.198Z,3.00
2019-02-19T05:22:13.833Z,3.47
2019-02-19T05:24:41.326Z,2.00
2019-02-19T05:27:07.935Z,2.07
2019-02-19T05:29:34.256Z,3.47
2019-02-19T05:32:03.149Z,2.00
2019-02-19T05:34:32.170Z,3.00
2019-02-19T05:36:58.401Z,2.93
2019-02-19T05:39:25.039Z,2.20
2019-02-19T05:41:51.942Z,4.07
2019-02-19T05:44:18.569Z,2.53
2019-02-19T05:46:49.842Z,2.43
2019-02-19T05:49:14.812Z,3.20
2019-02-19T05:51:41.453Z,3.03
2019-02-19T05:54:08.324Z,2.30
2019-02-19T05:56:34.627Z,2.30
2019-02-19T05:59:03.401Z,4.57
2019-02-19T06:01:30.021Z,2.57
2019-02-19T06:03:56.637Z,3.10
2019-02-19T06:08:51.393Z,4.13
2019-02-19T06:11:18.405Z,3.63
2019-02-19T06:13:44.670Z,2.57
2019-02-19T06:16:11.298Z,2.37
2019-02-19T06:18:37.953Z,4.03
2019-02-19T06:21:04.611Z,4.23
2019-02-19T06:23:31.552Z,3.47
2019-02-19T06:25:58.182Z,3.43
2019-02-19T06:28:24.454Z,14.10
2019-02-19T06:30:50.721Z,7.23
2019-02-19T06:33:16.942Z,3.33
2019-02-19T06:35:43.576Z,2.20
2019-02-19T06:38:10.178Z,3.50
2019-02-19T06:40:37.007Z,2.50
2019-02-19T06:43:03.258Z,3.87
2019-02-19T06:45:29.654Z,2.50
2019-02-19T07:05:08.172Z,6.83
2019-02-19T07:07:34.790Z,4.67
2019-02-19T07:10:01.392Z,4.93
2019-02-19T07:12:28.022Z,3.30
2019-02-19T07:14:54.638Z,3.33
2019-02-19T07:17:20.942Z,4.57
2019-02-19T07:19:47.229Z,2.60
2019-02-19T07:22:13.806Z,3.03
2019-02-19T07:24:40.426Z,3.50
2019-02-19T07:27:07.057Z,2.77
2019-02-19T07:29:33.729Z,3.17
2019-02-19T07:32:00.347Z,3.97
2019-02-19T07:34:27.017Z,3.30
2019-02-19T07:36:53.626Z,2.80
2019-02-19T07:39:20.280Z,3.60
2019-02-19T07:41:46.898Z,2.93
2019-02-19T07:44:13.165Z,4.00
2019-02-19T07:46:39.981Z,2.13
2019-02-19T07:49:06.255Z,3.27
2019-02-19T07:51:32.938Z,2.80
2019-02-19T07:53:59.549Z,3.27
2019-02-19T07:56:27.034Z,2.30
2019-02-19T07:58:53.666Z,2.67
2019-02-19T08:01:20.282Z,2.30
2019-02-19T08:03:46.894Z,4.30
2019-02-19T08:06:13.155Z,2.57
2019-02-19T08:08:41.094Z,2.50
2019-02-19T08:11:07.850Z,3.07
2019-02-19T08:13:34.495Z,3.03
2019-02-19T08:16:00.789Z,3.27
2019-02-19T08:18:27.433Z,2.37
2019-02-19T08:20:54.096Z,4.90
2019-02-19T08:23:20.719Z,2.10
2019-02-19T08:25:47.337Z,3.23
2019-02-19T08:28:13.966Z,3.07
2019-02-19T08:30:42.473Z,3.20
2019-02-19T08:33:09.105Z,7.40
2019-02-19T08:35:35.373Z,3.60
2019-02-19T08:38:01.664Z,4.27
2019-02-19T08:40:28.301Z,3.13
2019-02-19T08:42:54.563Z,2.40
2019-02-19T08:45:21.204Z,4.70
2019-02-19T08:47:47.832Z,2.17
2019-02-19T08:50:14.433Z,4.60
2019-02-19T08:52:41.041Z,2.37
2019-02-19T08:55:09.573Z,2.43
2019-02-19T08:57:36.250Z,3.63
2019-02-19T09:00:04.777Z,2.80
2019-02-19T09:02:31.066Z,4.77
2019-02-19T09:04:57.337Z,3.87
2019-02-19T09:07:24.004Z,4.63
2019-02-19T09:09:50.883Z,3.73
2019-02-19T09:12:17.845Z,11.60
2019-02-19T09:14:44.720Z,3.47
2019-02-19T09:17:11.624Z,2.30
2019-02-19T09:19:38.260Z,5.17
2019-02-19T09:22:06.774Z,3.37
2019-02-19T09:24:33.071Z,5.57
2019-02-19T09:26:59.337Z,2.63
2019-02-19T09:29:25.628Z,1.83
2019-02-19T09:31:54.289Z,2.03
2019-02-19T09:34:20.930Z,3.43
2019-02-19T09:36:47.198Z,3.43
2019-02-19T09:39:13.460Z,2.17
2019-02-19T09:41:40.095Z,4.70
2019-02-19T09:44:06.351Z,3.50
2019-02-19T09:46:32.649Z,3.03
2019-02-19T09:48:59.261Z,2.53
2019-02-19T09:51:25.582Z,4.43
2019-02-19T09:53:52.161Z,3.17
2019-02-19T09:56:18.822Z,3.47
2019-02-19T09:58:45.443Z,2.23
2019-02-19T10:01:12.131Z,2.57
2019-02-19T10:03:38.752Z,2.80
2019-02-19T10:06:05.019Z,2.13
2019-02-19T10:08:31.285Z,3.53
2019-02-19T10:10:57.553Z,3.03
2019-02-19T10:13:25.190Z,3.37
2019-02-19T10:15:51.487Z,3.43
2019-02-19T10:18:18.131Z,2.10
2019-02-19T10:20:44.397Z,3.50
2019-02-19T10:23:11.093Z,4.20
2019-02-19T10:25:37.719Z,2.97
2019-02-19T10:28:04.006Z,2.63
2019-02-19T10:30:30.388Z,3.70
2019-02-19T10:32:58.257Z,2.90
2019-02-19T10:35:24.565Z,4.27
2019-02-19T10:37:51.849Z,2.53
2019-02-19T10:40:19.624Z,2.97
2019-02-19T10:42:46.249Z,2.33
2019-02-19T10:45:17.695Z,4.63
2019-02-19T10:47:44.369Z,4.10
2019-02-19T10:50:10.973Z,5.10
2019-02-19T10:52:37.623Z,3.13
2019-02-19T10:55:05.041Z,3.20
2019-02-19T10:57:31.710Z,4.07
2019-02-19T10:59:58.595Z,4.60
2019-02-19T11:02:25.223Z,3.73
2019-02-19T11:04:51.835Z,4.90
2019-02-19T11:07:18.096Z,2.77
2019-02-19T11:09:44.398Z,3.80
2019-02-19T11:12:11.013Z,5.00
2019-02-19T11:14:37.640Z,3.50
2019-02-19T11:17:03.898Z,4.50
2019-02-19T11:19:30.577Z,3.97
2019-02-19T11:21:56.798Z,6.23
2019-02-19T11:24:23.338Z,2.20
2019-02-19T11:26:49.918Z,2.43
2019-02-19T11:29:16.582Z,3.00
2019-02-19T11:31:43.223Z,3.80
2019-02-19T11:34:09.826Z,5.43
2019-02-19T11:36:36.474Z,2.63
2019-02-19T11:39:04.313Z,2.17
2019-02-19T11:41:30.924Z,2.50
2019-02-19T11:43:58.373Z,3.67
2019-02-19T11:46:24.980Z,4.07
2019-02-19T11:48:51.237Z,2.80
2019-02-19T11:51:17.884Z,3.30
2019-02-19T11:53:45.269Z,4.73
2019-02-19T11:56:11.544Z,4.23
2019-02-19T11:58:38.191Z,3.27
2019-02-19T12:01:05.345Z,3.40
2019-02-19T12:03:31.957Z,3.13
2019-02-19T12:05:58.678Z,3.67
2019-02-19T12:08:24.946Z,3.00
2019-02-19T12:10:51.571Z,4.67
2019-02-19T12:13:18.038Z,4.03
2019-02-19T12:15:44.293Z,2.27
2019-02-19T12:18:10.928Z,3.30
2019-02-19T12:20:37.564Z,3.27
2019-02-19T12:23:04.182Z,3.37
2019-02-19T12:25:30.830Z,2.90
2019-02-19T12:27:57.449Z,2.83
2019-02-19T12:30:23.739Z,3.63
2019-02-19T12:32:50.373Z,3.10
2019-02-19T12:35:16.671Z,2.90
2019-02-19T12:37:43.150Z,5.03
2019-02-19T12:40:10.478Z,6.43
2019-02-19T12:42:37.101Z,3.20
2019-02-19T12:45:04.723Z,2.83
2019-02-19T12:47:31.014Z,2.43
2019-02-19T12:49:57.644Z,3.83
2019-02-19T12:52:23.930Z,2.60
2019-02-19T12:54:50.553Z,4.37
2019-02-19T12:57:17.310Z,3.10
2019-02-19T12:59:43.564Z,3.07
2019-02-19T13:02:09.826Z,4.90
2019-02-19T13:04:36.082Z,5.23
2019-02-19T13:07:02.366Z,3.03
2019-02-19T13:09:29.029Z,3.70
2019-02-19T13:11:55.646Z,3.60
2019-02-19T13:14:21.941Z,3.80
2019-02-19T13:16:48.206Z,3.97
2019-02-19T13:19:14.496Z,3.50
2019-02-19T13:21:40.809Z,3.63
2019-02-19T13:24:07.664Z,3.63
2019-02-19T13:26:34.326Z,3.17
2019-02-19T13:29:02.514Z,2.87
2019-02-19T13:31:33.408Z,4.93
2019-02-19T13:34:02.691Z,3.33
2019-02-19T13:36:30.876Z,3.37
2019-02-19T13:38:57.495Z,5.37
2019-02-19T13:41:24.159Z,5.87
2019-02-19T13:43:53.761Z,5.33
2019-02-19T13:46:20.397Z,3.50
2019-02-19T13:48:47.023Z,6.00
2019-02-19T13:51:13.638Z,5.50
2019-02-19T13:53:41.789Z,133.57
2019-02-19T13:56:08.037Z,181.77
2019-02-19T13:58:34.325Z,116.70
2019-02-19T14:01:00.944Z,41.10
2019-02-19T14:03:29.494Z,18.47
2019-02-19T14:05:57.365Z,10.13
2019-02-19T14:08:24.035Z,8.57
2019-02-19T14:10:50.652Z,6.07
2019-02-19T14:13:17.029Z,4.17
2019-02-19T14:15:45.573Z,4.23
2019-02-19T14:18:14.097Z,5.93
2019-02-19T14:20:51.620Z,5.57
2019-02-19T14:23:20.150Z,5.60
2019-02-19T14:25:48.318Z,4.80
2019-02-19T14:28:22.553Z,5.30
2019-02-19T14:31:02.683Z,4.87
2019-02-19T14:33:48.654Z,5.13
2019-02-19T14:36:21.815Z,4.43
2019-02-19T14:39:08.268Z,7.23
2019-02-19T14:41:39.555Z,4.63
2019-02-19T14:44:07.748Z,5.33
2019-02-19T14:46:47.942Z,4.93
2019-02-19T14:49:19.133Z,4.23
2019-02-19T14:52:02.682Z,3.80
2019-02-19T14:54:40.354Z,5.67
2019-02-19T14:57:08.885Z,4.77
2019-02-19T14:59:49.222Z,4.00
2019-02-19T15:02:34.220Z,3.83
2019-02-19T15:05:19.766Z,4.40
2019-02-19T15:07:57.850Z,4.77
2019-02-19T15:10:38.387Z,4.27
2019-02-19T15:13:15.678Z,4.53
2019-02-19T15:15:44.661Z,5.60
2019-02-19T15:18:13.189Z,5.37
2019-02-19T15:20:43.896Z,4.07
2019-02-19T15:23:24.453Z,4.60
2019-02-19T15:25:54.010Z,3.90
2019-02-19T15:28:38.933Z,4.30
2019-02-19T15:31:25.470Z,4.27
2019-02-19T15:33:54.009Z,5.10
2019-02-19T15:36:39.197Z,3.83
2019-02-19T15:39:16.531Z,5.93
2019-02-19T15:42:01.559Z,5.20
2019-02-19T15:44:45.148Z,4.33
2019-02-19T15:47:22.681Z,4.57
2019-02-19T15:49:53.890Z,4.77
2019-02-19T15:52:25.291Z,4.17
2019-02-19T15:55:08.878Z,4.27
2019-02-19T15:57:55.021Z,5.73
2019-02-19T16:00:26.155Z,4.33
2019-02-19T16:02:54.594Z,4.60
2019-02-19T16:05:35.157Z,5.60
2019-02-19T16:08:09.726Z,4.47
2019-02-19T16:10:38.269Z,3.70
2019-02-19T16:13:06.811Z,5.43
2019-02-19T16:15:38.014Z,4.83
2019-02-19T16:18:15.617Z,4.50
2019-02-19T16:20:46.519Z,4.20
2019-02-19T16:23:15.238Z,5.50
2019-02-19T16:25:49.217Z,5.00
2019-02-19T16:28:35.313Z,4.77
2019-02-19T16:31:09.709Z,6.30
2019-02-19T16:33:38.152Z,3.50
2019-02-19T16:36:06.710Z,4.37
2019-02-19T16:38:43.950Z,6.53
2019-02-19T16:41:15.374Z,5.07
2019-02-19T16:43:56.759Z,5.77
2019-02-19T16:46:24.938Z,6.27
2019-02-19T16:48:59.169Z,5.27
2019-02-19T16:51:27.699Z,5.67
2019-02-19T16:54:14.037Z,5.03
2019-02-19T16:56:42.587Z,5.20
2019-02-19T16:59:27.361Z,5.13
2019-02-19T17:02:05.555Z,5.30
2019-02-19T17:04:36.874Z,5.00
2019-02-19T17:07:05.539Z,5.17
2019-02-19T17:09:40.030Z,5.27
2019-02-19T17:12:14.556Z,4.03
2019-02-19T17:14:45.858Z,4.63
2019-02-19T17:17:14.019Z,4.87
2019-02-19T17:20:00.909Z,7.27
2019-02-19T17:22:29.475Z,4.90
2019-02-19T17:25:00.601Z,4.23
2019-02-19T17:27:32.098Z,4.13
2019-02-19T17:30:00.622Z,4.63
2019-02-19T17:32:35.055Z,4.87
2019-02-19T17:35:03.250Z,5.63
2019-02-19T17:37:37.653Z,6.03
2019-02-19T17:40:08.171Z,5.10
2019-02-19T17:42:39.371Z,5.60
2019-02-19T17:45:17.237Z,4.30
2019-02-19T17:47:45.410Z,4.20
2019-02-19T17:50:14.067Z,5.50
2019-02-19T17:52:48.310Z,5.77
2019-02-19T17:55:33.108Z,5.10
2019-02-19T17:58:04.477Z,5.40
2019-02-19T18:00:32.682Z,5.13
2019-02-19T18:03:17.216Z,4.57
2019-02-19T18:05:54.784Z,4.63
2019-02-19T18:08:34.974Z,4.33
2019-02-19T18:11:03.517Z,4.23
2019-02-19T18:13:32.826Z,6.27
2019-02-19T18:16:10.015Z,5.17
2019-02-19T18:18:50.509Z,4.67
2019-02-19T18:21:17.521Z,3.53
2019-02-19T18:23:44.150Z,3.57
2019-02-19T18:26:10.904Z,4.23
2019-02-19T18:28:37.162Z,5.33
2019-02-19T18:31:03.459Z,3.27
2019-02-19T18:33:30.124Z,3.87
2019-02-19T18:35:56.749Z,3.87
2019-02-19T18:38:23.035Z,4.60
2019-02-19T18:40:49.294Z,3.93
2019-02-19T18:43:15.929Z,3.43
2019-02-19T18:45:43.345Z,3.27
2019-02-19T18:48:09.975Z,3.67
2019-02-19T18:50:36.609Z,4.37
2019-02-19T18:53:02.885Z,5.77
2019-02-19T18:55:29.537Z,3.83
2019-02-19T18:57:56.079Z,4.83
2019-02-19T19:00:22.713Z,3.53
2019-02-19T19:02:49.360Z,3.83
2019-02-19T19:05:16.040Z,6.97
2019-02-19T19:07:42.668Z,8.00
2019-02-19T19:10:10.119Z,8.70
2019-02-19T19:12:36.735Z,5.33
2019-02-19T19:15:05.789Z,5.80
2019-02-19T19:17:32.468Z,4.93
2019-02-19T19:19:59.065Z,5.50
2019-02-19T19:22:25.714Z,5.17
2019-02-19T19:24:52.334Z,4.77
2019-02-19T19:27:18.985Z,4.67
2019-02-19T19:29:45.273Z,4.60
2019-02-19T19:32:11.538Z,5.53
2019-02-19T19:34:38.169Z,3.77
2019-02-19T19:37:04.790Z,4.17
2019-02-19T19:39:31.423Z,3.27
2019-02-19T19:41:58.042Z,3.53
2019-02-19T19:44:24.985Z,6.53
2019-02-19T19:46:51.897Z,6.47
2019-02-19T19:49:18.246Z,7.27
2019-02-19T19:51:44.486Z,7.13
2019-02-19T19:54:11.116Z,4.40
2019-02-19T19:56:37.570Z,3.57
2019-02-19T19:59:04.187Z,4.07
2019-02-19T20:01:30.847Z,3.00
2019-02-19T20:03:57.906Z,4.27
2019-02-19T20:06:24.553Z,3.90
2019-02-19T20:08:51.142Z,3.43
2019-02-19T20:11:18.000Z,3.83
2019-02-19T20:13:44.271Z,3.33
2019-02-19T20:16:10.561Z,5.65
2019-02-19T20:18:39.162Z,5.30
2019-02-19T20:21:05.462Z,5.20
2019-02-19T20:23:31.754Z,4.47
2019-02-19T20:25:58.097Z,5.13
2019-02-19T20:28:24.722Z,3.60
2019-02-19T20:30:50.978Z,3.90
2019-02-19T20:33:17.921Z,3.90
2019-02-19T20:35:44.550Z,4.40
2019-02-19T20:38:11.059Z,3.90
2019-02-19T20:40:37.696Z,3.70
2019-02-19T20:43:03.973Z,3.73
2019-02-19T20:45:30.896Z,4.47
2019-02-19T20:47:57.546Z,4.67
2019-02-19T20:50:23.834Z,3.97
2019-02-19T20:52:50.411Z,5.23
2019-02-19T20:55:17.065Z,3.87
2019-02-19T20:57:43.698Z,5.00
2019-02-19T21:00:15.624Z,5.80
2019-02-19T21:02:41.894Z,4.53
2019-02-19T21:05:09.658Z,5.57
2019-02-19T21:07:36.297Z,3.90
2019-02-19T21:10:05.181Z,4.33
2019-02-19T21:12:31.790Z,3.97
2019-02-19T21:14:59.260Z,4.33
2019-02-19T21:17:25.886Z,5.73
2019-02-19T21:19:52.167Z,4.63
2019-02-19T21:22:18.805Z,4.93
2019-02-19T21:24:45.358Z,4.20
2019-02-19T21:27:11.635Z,4.67
2019-02-19T21:29:37.978Z,4.30
2019-02-19T21:32:04.247Z,5.73
2019-02-19T21:34:30.882Z,3.80
2019-02-19T21:36:57.506Z,4.10
2019-02-19T21:39:24.118Z,3.90
2019-02-19T21:41:50.410Z,4.83
2019-02-19T21:44:16.686Z,5.47
2019-02-19T21:46:42.986Z,4.23
2019-02-19T21:49:09.610Z,3.80
2019-02-19T21:51:36.364Z,3.87
2019-02-19T21:54:03.297Z,4.23
2019-02-19T21:56:29.598Z,3.90
2019-02-19T21:58:56.566Z,3.40
2019-02-19T22:01:25.138Z,5.17
2019-02-19T22:03:51.769Z,3.50
2019-02-19T22:06:18.396Z,4.87
2019-02-19T22:08:45.002Z,3.10
2019-02-19T22:11:12.654Z,3.47
2019-02-19T22:13:39.304Z,3.80
2019-02-19T22:16:05.564Z,2.90
2019-02-19T22:18:32.217Z,3.83
2019-02-19T22:21:09.406Z,3.50
2019-02-19T22:23:35.706Z,3.00
2019-02-19T22:26:01.970Z,3.37
2019-02-19T22:28:28.651Z,3.00
2019-02-19T22:30:55.289Z,3.20
2019-02-19T22:33:22.153Z,3.80
2019-02-19T22:35:48.434Z,3.57
2019-02-19T22:38:15.049Z,2.33
2019-02-19T22:40:41.675Z,3.20
2019-02-19T22:43:08.271Z,2.70
2019-02-19T22:45:35.162Z,2.30
2019-02-19T22:48:01.830Z,2.60
2019-02-19T22:50:28.094Z,3.13
2019-02-19T22:52:54.713Z,2.90
2019-02-19T22:55:23.266Z,2.40
2019-02-19T22:57:50.137Z,2.83
2019-02-19T23:00:41.759Z,3.03
2019-02-19T23:03:08.123Z,2.70
2019-02-19T23:05:34.448Z,2.67
2019-02-19T23:08:00.698Z,4.23
2019-02-19T23:10:27.321Z,2.60
2019-02-19T23:12:53.605Z,2.77
2019-02-19T23:15:19.859Z,2.67
2019-02-19T23:17:46.152Z,3.17
2019-02-19T23:20:13.214Z,3.07
2019-02-19T23:22:39.525Z,3.07
2019-02-19T23:25:06.155Z,3.30
2019-02-19T23:27:32.814Z,2.80
2019-02-19T23:29:59.303Z,2.83
2019-02-19T23:32:25.949Z,2.50
2019-02-19T23:34:54.752Z,3.03
2019-02-19T23:37:21.382Z,2.87
2019-02-19T23:39:47.725Z,2.83
2019-02-19T23:42:14.345Z,2.53
2019-02-19T23:44:41.246Z,2.70
2019-02-19T23:47:07.889Z,2.90
2019-02-19T23:49:34.545Z,2.47
2019-02-19T23:52:00.810Z,3.53
2019-02-19T23:54:27.117Z,2.07
2019-02-19T23:56:53.378Z,3.13
2019-02-19T23:59:19.653Z,2.20
